sensor_id;sensor_type;location;lat;lon;timestamp;P1;durP1;ratioP1;P2;durP2;ratioP2
63900;SDS011;50538;53.482;10.294;2023-08-30T00:04:06;3.53;;;0.80;;
63900;SDS011;50538;53.482;10.294;2023-08-30T00:14:07;2.28;;;0.80;;
63900;SDS011;50538;53.482;10.294;2023-08-30T00:24:10;1.33;;;0.93;;
63900;SDS011;50538;53.482;10.294;2023-08-30T00:34:10;2.58;;;0.90;;
63900;SDS011;50538;53.482;10.294;2023-08-30T00:44:11;1.87;;;0.80;;
63900;SDS011;50538;53.482;10.294;2023-08-30T00:54:12;1.77;;;0.90;;
63900;SDS011;50538;53.482;10.294;2023-08-30T01:04:12;1.73;;;0.85;;
63900;SDS011;50538;53.482;10.294;2023-08-30T01:14:15;1.45;;;0.80;;
63900;SDS011;50538;53.482;10.294;2023-08-30T01:24:26;2.63;;;0.88;;
63900;SDS011;50538;53.482;10.294;2023-08-30T01:34:37;1.10;;;0.70;;
63900;SDS011;50538;53.482;10.294;2023-08-30T01:44:39;2.30;;;0.68;;
63900;SDS011;50538;53.482;10.294;2023-08-30T01:54:44;1.60;;;0.95;;
63900;SDS011;50538;53.482;10.294;2023-08-30T02:04:46;1.70;;;0.98;;
63900;SDS011;50538;53.482;10.294;2023-08-30T02:14:47;2.33;;;1.00;;
63900;SDS011;50538;53.482;10.294;2023-08-30T02:24:50;2.28;;;1.08;;
63900;SDS011;50538;53.482;10.294;2023-08-30T02:34:52;1.90;;;0.80;;
63900;SDS011;50538;53.482;10.294;2023-08-30T02:44:53;2.25;;;1.10;;
63900;SDS011;50538;53.482;10.294;2023-08-30T02:54:53;2.22;;;1.08;;
63900;SDS011;50538;53.482;10.294;2023-08-30T03:04:53;1.58;;;0.98;;
63900;SDS011;50538;53.482;10.294;2023-08-30T03:14:54;2.22;;;1.27;;
63900;SDS011;50538;53.482;10.294;2023-08-30T03:24:54;2.38;;;1.23;;
63900;SDS011;50538;53.482;10.294;2023-08-30T03:34:54;1.92;;;1.10;;
63900;SDS011;50538;53.482;10.294;2023-08-30T03:44:55;2.58;;;1.10;;
63900;SDS011;50538;53.482;10.294;2023-08-30T03:54:55;3.47;;;1.50;;
63900;SDS011;50538;53.482;10.294;2023-08-30T04:04:55;4.15;;;1.90;;
63900;SDS011;50538;53.482;10.294;2023-08-30T04:14:56;3.75;;;1.55;;
63900;SDS011;50538;53.482;10.294;2023-08-30T04:24:57;6.32;;;1.80;;
63900;SDS011;50538;53.482;10.294;2023-08-30T04:34:57;3.42;;;1.60;;
63900;SDS011;50538;53.482;10.294;2023-08-30T04:44:57;3.17;;;1.50;;
63900;SDS011;50538;53.482;10.294;2023-08-30T04:55:00;4.30;;;1.73;;
63900;SDS011;50538;53.482;10.294;2023-08-30T05:05:00;4.38;;;1.67;;
63900;SDS011;50538;53.482;10.294;2023-08-30T05:15:01;9.20;;;1.77;;
63900;SDS011;50538;53.482;10.294;2023-08-30T05:25:02;3.90;;;1.88;;
63900;SDS011;50538;53.482;10.294;2023-08-30T05:35:04;4.85;;;1.95;;
63900;SDS011;50538;53.482;10.294;2023-08-30T05:45:05;7.75;;;2.20;;
63900;SDS011;50538;53.482;10.294;2023-08-30T05:55:09;4.85;;;1.73;;
63900;SDS011;50538;53.482;10.294;2023-08-30T06:05:10;5.10;;;2.10;;
63900;SDS011;50538;53.482;10.294;2023-08-30T06:15:10;4.78;;;2.08;;
63900;SDS011;50538;53.482;10.294;2023-08-30T06:25:13;3.95;;;1.92;;
63900;SDS011;50538;53.482;10.294;2023-08-30T06:35:13;5.80;;;2.30;;
63900;SDS011;50538;53.482;10.294;2023-08-30T06:45:14;5.60;;;2.58;;
63900;SDS011;50538;53.482;10.294;2023-08-30T06:55:16;5.75;;;2.40;;
63900;SDS011;50538;53.482;10.294;2023-08-30T07:05:16;7.25;;;2.22;;
63900;SDS011;50538;53.482;10.294;2023-08-30T07:15:17;4.60;;;2.20;;
63900;SDS011;50538;53.482;10.294;2023-08-30T07:25:17;5.37;;;2.20;;
63900;SDS011;50538;53.482;10.294;2023-08-30T07:35:19;5.03;;;2.50;;
63900;SDS011;50538;53.482;10.294;2023-08-30T07:45:21;9.38;;;3.00;;
63900;SDS011;50538;53.482;10.294;2023-08-30T07:55:21;5.85;;;2.90;;
63900;SDS011;50538;53.482;10.294;2023-08-30T08:05:22;5.03;;;2.47;;
63900;SDS011;50538;53.482;10.294;2023-08-30T08:15:22;8.05;;;3.00;;
63900;SDS011;50538;53.482;10.294;2023-08-30T08:25:23;5.25;;;2.90;;
63900;SDS011;50538;53.482;10.294;2023-08-30T08:35:23;4.60;;;2.50;;
63900;SDS011;50538;53.482;10.294;2023-08-30T08:45:25;6.22;;;2.63;;
63900;SDS011;50538;53.482;10.294;2023-08-30T08:55:27;4.82;;;2.53;;
63900;SDS011;50538;53.482;10.294;2023-08-30T09:05:30;6.18;;;2.95;;
63900;SDS011;50538;53.482;10.294;2023-08-30T09:15:32;9.88;;;3.47;;
63900;SDS011;50538;53.482;10.294;2023-08-30T09:25:33;6.38;;;2.80;;
63900;SDS011;50538;53.482;10.294;2023-08-30T09:35:44;5.53;;;2.78;;
63900;SDS011;50538;53.482;10.294;2023-08-30T09:45:45;5.75;;;3.13;;
63900;SDS011;50538;53.482;10.294;2023-08-30T09:55:46;7.10;;;3.53;;
63900;SDS011;50538;53.482;10.294;2023-08-30T10:15:50;7.43;;;3.55;;
63900;SDS011;50538;53.482;10.294;2023-08-30T10:25:58;9.27;;;3.22;;
63900;SDS011;50538;53.482;10.294;2023-08-30T10:36:06;6.17;;;3.20;;
63900;SDS011;50538;53.482;10.294;2023-08-30T10:46:08;7.10;;;3.30;;
63900;SDS011;50538;53.482;10.294;2023-08-30T10:56:11;5.68;;;3.10;;
63900;SDS011;50538;53.482;10.294;2023-08-30T11:06:15;5.33;;;2.23;;
63900;SDS011;50538;53.482;10.294;2023-08-30T11:16:23;5.15;;;2.47;;
63900;SDS011;50538;53.482;10.294;2023-08-30T11:26:24;6.20;;;2.55;;
63900;SDS011;50538;53.482;10.294;2023-08-30T11:36:29;6.07;;;2.50;;
63900;SDS011;50538;53.482;10.294;2023-08-30T11:46:33;6.15;;;2.63;;
63900;SDS011;50538;53.482;10.294;2023-08-30T11:56:36;6.22;;;2.50;;
63900;SDS011;50538;53.482;10.294;2023-08-30T12:06:37;4.55;;;2.38;;
63900;SDS011;50538;53.482;10.294;2023-08-30T12:16:39;4.18;;;2.13;;
63900;SDS011;50538;53.482;10.294;2023-08-30T12:26:41;4.68;;;1.83;;
63900;SDS011;50538;53.482;10.294;2023-08-30T12:36:42;4.40;;;1.55;;
63900;SDS011;50538;53.482;10.294;2023-08-30T12:46:43;3.17;;;1.60;;
63900;SDS011;50538;53.482;10.294;2023-08-30T12:56:44;4.50;;;2.03;;
63900;SDS011;50538;53.482;10.294;2023-08-30T13:06:45;3.75;;;1.67;;
63900;SDS011;50538;53.482;10.294;2023-08-30T13:16:46;3.72;;;1.98;;
63900;SDS011;50538;53.482;10.294;2023-08-30T13:26:46;3.73;;;1.57;;
63900;SDS011;50538;53.482;10.294;2023-08-30T13:36:47;4.10;;;1.47;;
63900;SDS011;50538;53.482;10.294;2023-08-30T13:46:49;3.73;;;1.50;;
63900;SDS011;50538;53.482;10.294;2023-08-30T13:56:53;3.50;;;1.50;;
63900;SDS011;50538;53.482;10.294;2023-08-30T14:06:59;4.00;;;1.80;;
63900;SDS011;50538;53.482;10.294;2023-08-30T14:17:00;4.95;;;1.67;;
63900;SDS011;50538;53.482;10.294;2023-08-30T14:27:04;4.72;;;2.20;;
63900;SDS011;50538;53.482;10.294;2023-08-30T14:37:08;3.78;;;2.05;;
63900;SDS011;50538;53.482;10.294;2023-08-30T14:47:10;4.65;;;1.70;;
63900;SDS011;50538;53.482;10.294;2023-08-30T14:57:11;3.53;;;1.70;;
63900;SDS011;50538;53.482;10.294;2023-08-30T15:07:22;3.72;;;1.90;;
63900;SDS011;50538;53.482;10.294;2023-08-30T15:17:27;4.07;;;1.73;;
63900;SDS011;50538;53.482;10.294;2023-08-30T15:27:31;3.05;;;1.77;;
63900;SDS011;50538;53.482;10.294;2023-08-30T15:37:37;3.17;;;1.60;;
63900;SDS011;50538;53.482;10.294;2023-08-30T15:47:40;5.50;;;1.80;;
63900;SDS011;50538;53.482;10.294;2023-08-30T15:57:45;3.92;;;1.60;;
63900;SDS011;50538;53.482;10.294;2023-08-30T16:07:48;2.55;;;1.50;;
63900;SDS011;50538;53.482;10.294;2023-08-30T16:17:59;2.97;;;1.65;;
63900;SDS011;50538;53.482;10.294;2023-08-30T16:28:03;2.97;;;1.35;;
63900;SDS011;50538;53.482;10.294;2023-08-30T16:38:06;4.27;;;1.77;;
63900;SDS011;50538;53.482;10.294;2023-08-30T16:48:07;2.83;;;1.30;;
63900;SDS011;50538;53.482;10.294;2023-08-30T16:58:10;6.25;;;1.70;;
63900;SDS011;50538;53.482;10.294;2023-08-30T17:08:12;5.13;;;2.40;;
63900;SDS011;50538;53.482;10.294;2023-08-30T17:18:13;7.88;;;2.65;;
63900;SDS011;50538;53.482;10.294;2023-08-30T17:28:15;5.35;;;2.28;;
63900;SDS011;50538;53.482;10.294;2023-08-30T17:38:15;4.93;;;2.50;;
63900;SDS011;50538;53.482;10.294;2023-08-30T17:48:17;7.57;;;2.40;;
63900;SDS011;50538;53.482;10.294;2023-08-30T17:58:19;5.67;;;2.43;;
63900;SDS011;50538;53.482;10.294;2023-08-30T18:08:23;5.43;;;2.30;;
63900;SDS011;50538;53.482;10.294;2023-08-30T18:18:23;5.22;;;2.35;;
63900;SDS011;50538;53.482;10.294;2023-08-30T18:28:27;4.78;;;2.53;;
63900;SDS011;50538;53.482;10.294;2023-08-30T18:38:28;4.13;;;2.28;;
63900;SDS011;50538;53.482;10.294;2023-08-30T18:48:30;5.82;;;2.80;;
63900;SDS011;50538;53.482;10.294;2023-08-30T18:58:30;4.82;;;2.17;;
63900;SDS011;50538;53.482;10.294;2023-08-30T19:08:33;5.45;;;2.55;;
63900;SDS011;50538;53.482;10.294;2023-08-30T19:18:35;5.88;;;2.53;;
63900;SDS011;50538;53.482;10.294;2023-08-30T19:28:36;4.30;;;2.25;;
63900;SDS011;50538;53.482;10.294;2023-08-30T19:38:37;6.72;;;2.72;;
63900;SDS011;50538;53.482;10.294;2023-08-30T19:58:43;6.72;;;2.72;;
63900;SDS011;50538;53.482;10.294;2023-08-30T20:08:44;4.45;;;2.38;;
63900;SDS011;50538;53.482;10.294;2023-08-30T20:18:44;8.18;;;2.90;;
63900;SDS011;50538;53.482;10.294;2023-08-30T20:28:49;4.55;;;2.15;;
63900;SDS011;50538;53.482;10.294;2023-08-30T20:38:50;4.30;;;1.85;;
63900;SDS011;50538;53.482;10.294;2023-08-30T20:48:51;3.88;;;2.35;;
63900;SDS011;50538;53.482;10.294;2023-08-30T20:58:52;4.97;;;2.25;;
63900;SDS011;50538;53.482;10.294;2023-08-30T21:08:56;4.47;;;2.15;;
63900;SDS011;50538;53.482;10.294;2023-08-30T21:18:58;5.05;;;2.00;;
63900;SDS011;50538;53.482;10.294;2023-08-30T21:28:59;3.67;;;1.88;;
63900;SDS011;50538;53.482;10.294;2023-08-30T21:39:11;4.05;;;2.20;;
63900;SDS011;50538;53.482;10.294;2023-08-30T21:49:12;5.38;;;2.20;;
63900;SDS011;50538;53.482;10.294;2023-08-30T21:59:13;4.93;;;2.40;;
63900;SDS011;50538;53.482;10.294;2023-08-30T22:09:13;4.25;;;2.28;;
63900;SDS011;50538;53.482;10.294;2023-08-30T22:19:14;4.63;;;2.35;;
63900;SDS011;50538;53.482;10.294;2023-08-30T22:29:15;5.22;;;2.25;;
63900;SDS011;50538;53.482;10.294;2023-08-30T22:39:15;5.30;;;2.58;;
63900;SDS011;50538;53.482;10.294;2023-08-30T22:49:16;5.32;;;2.63;;
63900;SDS011;50538;53.482;10.294;2023-08-30T22:59:17;8.73;;;3.55;;
63900;SDS011;50538;53.482;10.294;2023-08-30T23:09:17;8.68;;;3.83;;
63900;SDS011;50538;53.482;10.294;2023-08-30T23:19:21;9.20;;;3.73;;
63900;SDS011;50538;53.482;10.294;2023-08-30T23:29:22;6.53;;;2.92;;
63900;SDS011;50538;53.482;10.294;2023-08-30T23:39:26;9.07;;;3.72;;
63900;SDS011;50538;53.482;10.294;2023-08-30T23:49:27;7.35;;;3.35;;
63900;SDS011;50538;53.482;10.294;2023-08-30T23:59:27;7.13;;;3.05;;
